Time;durP1;ratioP1;P1;durP2;ratioP2;P2;SDS_P1;SDS_P2;PMS_P1;PMS_P2;Temp;Humidity;BMP_temperature;BMP_pressure;BME280_temperature;BME280_humidity;BME280_pressure;Samples;Min_cycle;Max_cycle;Signal;HPM_P1;HPM_P2
2023/05/12 00:00:58;;;;;;;9.70;8.70;;;;;;;;;;5062071;28;20181;-78
2023/05/12 00:03:24;;;;;;;8.53;7.63;;;;;;;;;;5066439;28;20208;-78
2023/05/12 00:05:49;;;;;;;8.53;7.73;;;;;;;;;;5061345;28;20178;-78
2023/05/12 00:08:14;;;;;;;8.20;7.40;;;;;;;;;;5075651;28;20195;-78
2023/05/12 00:10:39;;;;;;;9.20;7.70;;;;;;;;;;5057991;28;20189;-78
2023/05/12 00:13:05;;;;;;;8.63;7.73;;;;;;;;;;5058143;28;20177;-78
2023/05/12 00:15:30;;;;;;;9.70;8.70;;;;;;;;;;5062186;28;20209;-78
2023/05/12 00:17:58;;;;;;;9.07;8.17;;;;;;;;;;5061240;28;20178;-78
2023/05/12 00:20:23;;;;;;;10.20;9.20;;;;;;;;;;5059210;28;20181;-78
2023/05/12 00:22:48;;;;;;;9.73;8.73;;;;;;;;;;5060188;28;20201;-78
2023/05/12 00:25:14;;;;;;;9.27;8.27;;;;;;;;;;5063330;28;20181;-78
2023/05/12 00:27:39;;;;;;;9.50;7.97;;;;;;;;;;5064416;28;20174;-78
2023/05/12 00:30:05;;;;;;;8.60;7.70;;;;;;;;;;5069633;28;20212;-78
2023/05/12 00:32:31;;;;;;;8.30;6.77;;;;;;;;;;5064160;28;20184;-78
2023/05/12 00:34:56;;;;;;;10.13;7.77;;;;;;;;;;5024932;28;20236;-79
2023/05/12 00:37:22;;;;;;;9.60;8.60;;;;;;;;;;5028051;28;20202;-78
2023/05/12 00:39:47;;;;;;;10.73;9.03;;;;;;;;;;5029968;28;20189;-78
2023/05/12 00:42:12;;;;;;;10.57;8.70;;;;;;;;;;5029258;28;20271;-78
2023/05/12 00:44:37;;;;;;;10.93;9.73;;;;;;;;;;5049488;28;20244;-78
2023/05/12 00:47:03;;;;;;;10.93;9.40;;;;;;;;;;5027021;28;20193;-78
2023/05/12 00:49:28;;;;;;;11.77;8.67;;;;;;;;;;5043804;28;20305;-78
2023/05/12 00:51:54;;;;;;;9.13;8.10;;;;;;;;;;5025587;28;20193;-78
2023/05/12 00:54:20;;;;;;;10.40;7.90;;;;;;;;;;5041181;28;20243;-78
2023/05/12 00:56:45;;;;;;;8.80;7.90;;;;;;;;;;5026850;28;20223;-78
2023/05/12 00:59:10;;;;;;;9.47;8.50;;;;;;;;;;5043464;28;20197;-78
2023/05/12 01:01:36;;;;;;;9.10;7.90;;;;;;;;;;5023045;28;20185;-78
2023/05/12 01:04:02;;;;;;;10.63;8.20;;;;;;;;;;5026145;28;20200;-78
2023/05/12 01:06:47;;;;;;;9.80;8.80;;;;;;;;;;5044627;28;20190;-78
2023/05/12 01:09:13;;;;;;;9.30;7.63;;;;;;;;;;5038458;28;20185;-78
2023/05/12 01:11:38;;;;;;;9.30;7.63;;;;;;;;;;5038747;28;20281;-79
2023/05/12 01:14:03;;;;;;;10.47;8.73;;;;;;;;;;5031623;28;20190;-78
2023/05/12 01:16:33;;;;;;;10.40;8.17;;;;;;;;;;5027345;28;20236;-79
2023/05/12 01:19:00;;;;;;;7.90;6.37;;;;;;;;;;5030760;28;20204;-78
2023/05/12 01:21:26;;;;;;;7.07;6.17;;;;;;;;;;5018125;28;20280;-78
2023/05/12 01:23:55;;;;;;;5.73;5.13;;;;;;;;;;5016964;28;20265;-78
2023/05/12 01:26:21;;;;;;;6.30;5.70;;;;;;;;;;5020825;28;20186;-78
2023/05/12 01:28:47;;;;;;;6.30;5.60;;;;;;;;;;5039604;28;20186;-78
2023/05/12 01:31:12;;;;;;;6.57;5.87;;;;;;;;;;5046883;28;20185;-78
2023/05/12 01:33:38;;;;;;;6.83;6.13;;;;;;;;;;5042151;28;20225;-78
2023/05/12 01:36:04;;;;;;;7.50;6.73;;;;;;;;;;5057164;28;20259;-78
2023/05/12 01:38:29;;;;;;;8.00;7.20;;;;;;;;;;5052284;28;20195;-78
2023/05/12 01:40:55;;;;;;;7.07;6.37;;;;;;;;;;5052997;28;20212;-78
2023/05/12 01:43:20;;;;;;;8.37;6.70;;;;;;;;;;5061067;28;20249;-78
2023/05/12 01:45:45;;;;;;;10.60;7.20;;;;;;;;;;5055063;28;20181;-79
2023/05/12 01:48:10;;;;;;;8.17;7.03;;;;;;;;;;5081543;28;20176;-78
2023/05/12 01:50:36;;;;;;;12.67;7.97;;;;;;;;;;5056875;28;20212;-78
2023/05/12 01:53:01;;;;;;;9.90;8.90;;;;;;;;;;5061753;28;20186;-78
2023/05/12 01:55:26;;;;;;;9.10;8.17;;;;;;;;;;5059054;28;20194;-79
2023/05/12 01:57:51;;;;;;;10.30;8.20;;;;;;;;;;5053696;28;20181;-78
2023/05/12 02:00:20;;;;;;;9.63;8.07;;;;;;;;;;5054089;28;20195;-78
2023/05/12 02:02:45;;;;;;;10.07;7.63;;;;;;;;;;5062943;28;20300;-78
2023/05/12 02:05:11;;;;;;;10.10;8.60;;;;;;;;;;5055064;28;20245;-78
2023/05/12 02:07:36;;;;;;;9.30;8.27;;;;;;;;;;5062839;28;20195;-78
2023/05/12 02:10:02;;;;;;;9.87;8.03;;;;;;;;;;5060820;28;20231;-78
2023/05/12 02:12:27;;;;;;;8.60;7.63;;;;;;;;;;5058967;28;20233;-78
2023/05/12 02:14:52;;;;;;;10.97;8.00;;;;;;;;;;5065883;28;20180;-78
2023/05/12 02:17:18;;;;;;;10.43;9.00;;;;;;;;;;5080059;28;20199;-78
2023/05/12 02:19:43;;;;;;;10.40;8.60;;;;;;;;;;5055358;28;20185;-78
2023/05/12 02:22:08;;;;;;;11.70;9.10;;;;;;;;;;5057348;28;20253;-78
2023/05/12 02:24:33;;;;;;;12.43;9.47;;;;;;;;;;5066852;28;20256;-78
2023/05/12 02:26:59;;;;;;;12.77;9.40;;;;;;;;;;5064039;28;20175;-78
2023/05/12 02:29:24;;;;;;;10.23;8.60;;;;;;;;;;5063229;28;20250;-78
2023/05/12 02:31:50;;;;;;;11.73;9.37;;;;;;;;;;5068106;28;20183;-78
2023/05/12 02:34:15;;;;;;;10.40;8.60;;;;;;;;;;5052695;28;20255;-78
2023/05/12 02:36:40;;;;;;;10.63;8.83;;;;;;;;;;5062009;28;20243;-78
2023/05/12 02:39:06;;;;;;;10.60;8.60;;;;;;;;;;5068711;28;20269;-78
2023/05/12 02:41:32;;;;;;;9.00;8.07;;;;;;;;;;5067847;28;20238;-78
2023/05/12 02:43:57;;;;;;;9.43;8.47;;;;;;;;;;5074391;28;20226;-78
2023/05/12 02:46:22;;;;;;;9.40;8.20;;;;;;;;;;5068984;28;20236;-78
2023/05/12 02:48:47;;;;;;;8.53;7.27;;;;;;;;;;5064130;28;20180;-78
2023/05/12 02:51:13;;;;;;;8.37;7.10;;;;;;;;;;5078339;28;20178;-78
2023/05/12 02:53:38;;;;;;;9.90;7.33;;;;;;;;;;5065028;28;20173;-78
2023/05/12 02:56:03;;;;;;;9.70;7.57;;;;;;;;;;5067460;28;20201;-78
2023/05/12 02:58:28;;;;;;;10.53;8.30;;;;;;;;;;5064532;28;20263;-78
2023/05/12 03:00:54;;;;;;;9.23;8.13;;;;;;;;;;5057438;28;20261;-78
2023/05/12 03:03:19;;;;;;;11.30;8.83;;;;;;;;;;5068192;28;20203;-78
2023/05/12 03:05:44;;;;;;;10.63;8.93;;;;;;;;;;5069151;28;20181;-78
2023/05/12 03:08:09;;;;;;;11.27;8.60;;;;;;;;;;5071116;28;20216;-78
2023/05/12 03:10:35;;;;;;;10.53;8.70;;;;;;;;;;5068118;28;20176;-78
2023/05/12 03:13:00;;;;;;;11.70;9.03;;;;;;;;;;5057111;28;20186;-79
2023/05/12 03:15:25;;;;;;;10.37;8.17;;;;;;;;;;5057618;28;20228;-78
2023/05/12 03:17:50;;;;;;;9.70;8.27;;;;;;;;;;5063786;28;20188;-78
2023/05/12 03:20:16;;;;;;;9.37;7.03;;;;;;;;;;5066499;28;20165;-78
2023/05/12 03:22:41;;;;;;;7.80;6.90;;;;;;;;;;5064795;28;20185;-78
2023/05/12 03:25:08;;;;;;;8.23;6.77;;;;;;;;;;5063186;28;20258;-78
2023/05/12 03:27:33;;;;;;;7.10;6.37;;;;;;;;;;5063639;28;20181;-78
2023/05/12 03:30:03;;;;;;;7.77;6.97;;;;;;;;;;5065736;28;20183;-78
2023/05/12 03:32:29;;;;;;;9.93;8.80;;;;;;;;;;5066926;28;20260;-78
2023/05/12 03:34:54;;;;;;;10.67;8.57;;;;;;;;;;5028491;28;20265;-78
2023/05/12 03:37:19;;;;;;;11.53;8.93;;;;;;;;;;5038123;28;20232;-78
2023/05/12 03:39:45;;;;;;;9.83;8.27;;;;;;;;;;5028664;28;20207;-78
2023/05/12 03:42:10;;;;;;;11.73;8.07;;;;;;;;;;5028544;28;20185;-78
2023/05/12 03:44:36;;;;;;;10.87;9.10;;;;;;;;;;5033418;28;20204;-78
2023/05/12 03:47:01;;;;;;;12.20;9.87;;;;;;;;;;5042860;28;20206;-78
2023/05/12 03:49:26;;;;;;;11.67;9.67;;;;;;;;;;5023760;28;20186;-78
2023/05/12 03:51:51;;;;;;;13.30;10.03;;;;;;;;;;5021739;28;20190;-78
2023/05/12 03:54:17;;;;;;;13.23;9.90;;;;;;;;;;5030742;28;20177;-78
2023/05/12 03:56:42;;;;;;;12.47;9.63;;;;;;;;;;5023902;28;20218;-78
2023/05/12 03:59:07;;;;;;;13.67;9.10;;;;;;;;;;5021628;28;20178;-78
2023/05/12 04:01:32;;;;;;;10.33;8.67;;;;;;;;;;5016544;28;20182;-78
2023/05/12 04:03:57;;;;;;;14.07;10.50;;;;;;;;;;5046374;28;20289;-78
2023/05/12 04:06:23;;;;;;;11.30;8.90;;;;;;;;;;5045304;28;20217;-78
2023/05/12 04:08:48;;;;;;;13.43;9.80;;;;;;;;;;5047291;28;20180;-78
2023/05/12 04:11:16;;;;;;;14.90;11.00;;;;;;;;;;5036866;28;20217;-78
2023/05/12 04:13:41;;;;;;;14.00;11.03;;;;;;;;;;5047510;28;20251;-78
2023/05/12 04:16:07;;;;;;;12.23;9.80;;;;;;;;;;5026675;28;20342;-78
2023/05/12 04:18:32;;;;;;;14.43;11.40;;;;;;;;;;5031087;28;20181;-78
2023/05/12 04:20:57;;;;;;;12.77;10.33;;;;;;;;;;5043544;28;20255;-78
2023/05/12 04:23:22;;;;;;;11.10;9.07;;;;;;;;;;5049676;28;20168;-79
2023/05/12 04:25:48;;;;;;;16.77;11.50;;;;;;;;;;5023087;28;20331;-78
2023/05/12 04:28:13;;;;;;;13.07;9.97;;;;;;;;;;5026728;28;20460;-79
2023/05/12 04:30:39;;;;;;;12.47;9.43;;;;;;;;;;5015777;28;20183;-78
2023/05/12 04:33:04;;;;;;;12.00;9.03;;;;;;;;;;5040770;28;20236;-78
2023/05/12 04:35:29;;;;;;;12.43;9.33;;;;;;;;;;5038313;28;20193;-78
2023/05/12 04:37:55;;;;;;;11.67;10.00;;;;;;;;;;5022698;28;20185;-78
2023/05/12 04:40:20;;;;;;;18.80;11.40;;;;;;;;;;5021371;28;20210;-79
2023/05/12 04:42:45;;;;;;;12.47;8.80;;;;;;;;;;5023338;28;20224;-78
2023/05/12 04:45:11;;;;;;;11.10;8.93;;;;;;;;;;5028697;28;20177;-78
2023/05/12 04:47:36;;;;;;;12.73;9.83;;;;;;;;;;5039521;28;20181;-78
2023/05/12 04:50:01;;;;;;;10.70;8.83;;;;;;;;;;5020838;28;20213;-75
2023/05/12 04:52:27;;;;;;;11.90;9.13;;;;;;;;;;5039383;28;20201;-78
2023/05/12 04:54:52;;;;;;;10.77;8.93;;;;;;;;;;5042210;28;20181;-78
2023/05/12 04:57:17;;;;;;;10.37;8.97;;;;;;;;;;5043457;28;20262;-78
2023/05/12 04:59:42;;;;;;;11.57;8.93;;;;;;;;;;5026386;28;20176;-78
2023/05/12 05:02:08;;;;;;;13.07;8.80;;;;;;;;;;5017297;28;20209;-78
2023/05/12 05:04:33;;;;;;;11.43;9.30;;;;;;;;;;5032003;28;20177;-78
2023/05/12 05:06:58;;;;;;;12.23;9.27;;;;;;;;;;5017370;28;20178;-78
2023/05/12 05:09:24;;;;;;;12.60;9.70;;;;;;;;;;5024163;28;20179;-78
2023/05/12 05:11:49;;;;;;;12.33;10.17;;;;;;;;;;5045225;28;20196;-78
2023/05/12 05:14:14;;;;;;;11.83;8.77;;;;;;;;;;5018127;28;20189;-78
2023/05/12 05:16:40;;;;;;;12.63;9.43;;;;;;;;;;5022071;28;20205;-78
2023/05/12 05:19:05;;;;;;;14.57;10.73;;;;;;;;;;5041846;28;20182;-79
2023/05/12 05:21:31;;;;;;;13.33;9.70;;;;;;;;;;5028312;28;20181;-78
2023/05/12 05:23:56;;;;;;;12.40;11.10;;;;;;;;;;5042386;28;20239;-78
2023/05/12 05:26:21;;;;;;;12.63;10.40;;;;;;;;;;5041767;28;20177;-78
2023/05/12 05:28:47;;;;;;;14.57;10.73;;;;;;;;;;5044629;28;20263;-78
2023/05/12 05:31:14;;;;;;;15.17;10.97;;;;;;;;;;5040776;28;20268;-79
2023/05/12 05:33:39;;;;;;;13.97;10.63;;;;;;;;;;5039674;28;20221;-78
2023/05/12 05:36:25;;;;;;;12.43;9.67;;;;;;;;;;5108106;27;20567;-77
2023/05/12 05:38:50;;;;;;;13.17;10.20;;;;;;;;;;5102062;28;20203;-77
2023/05/12 05:41:18;;;;;;;13.50;10.10;;;;;;;;;;5109440;27;20271;-76
2023/05/12 05:43:43;;;;;;;11.80;10.13;;;;;;;;;;5107885;28;20183;-76
2023/05/12 05:46:08;;;;;;;12.90;10.57;;;;;;;;;;5103033;28;20187;-76
2023/05/12 05:48:35;;;;;;;26.97;17.63;;;;;;;;;;5116898;27;20229;-77
2023/05/12 05:51:00;;;;;;;15.07;11.27;;;;;;;;;;5102918;28;20187;-76
2023/05/12 05:53:25;;;;;;;13.47;10.47;;;;;;;;;;5099870;28;20178;-76
2023/05/12 05:55:51;;;;;;;12.93;10.77;;;;;;;;;;5104936;28;20247;-77
2023/05/12 05:58:16;;;;;;;12.33;9.53;;;;;;;;;;5103973;28;20175;-76
2023/05/12 06:00:42;;;;;;;11.73;9.50;;;;;;;;;;5107677;28;20195;-76
2023/05/12 06:03:07;;;;;;;13.77;10.00;;;;;;;;;;5103404;28;20210;-76
2023/05/12 06:05:32;;;;;;;11.47;9.73;;;;;;;;;;5100593;28;20213;-76
2023/05/12 06:07:58;;;;;;;14.00;10.03;;;;;;;;;;5110912;28;20182;-76
2023/05/12 06:10:23;;;;;;;11.13;8.90;;;;;;;;;;5106930;28;20195;-76
2023/05/12 06:12:49;;;;;;;14.50;9.73;;;;;;;;;;5109362;28;20177;-76
2023/05/12 06:15:14;;;;;;;10.90;9.27;;;;;;;;;;5105555;28;20200;-76
2023/05/12 06:17:40;;;;;;;14.00;8.37;;;;;;;;;;5104591;28;20176;-76
2023/05/12 06:20:05;;;;;;;10.07;8.17;;;;;;;;;;5103130;28;20182;-76
2023/05/12 06:22:32;;;;;;;10.90;9.10;;;;;;;;;;5110581;28;20176;-76
2023/05/12 06:24:57;;;;;;;12.90;9.10;;;;;;;;;;5104669;28;20211;-76
2023/05/12 06:27:22;;;;;;;12.07;9.90;;;;;;;;;;5104953;28;20234;-76
2023/05/12 06:29:47;;;;;;;12.13;8.47;;;;;;;;;;5103010;28;20256;-76
2023/05/12 06:32:13;;;;;;;11.83;9.07;;;;;;;;;;5105016;28;20270;-76
2023/05/12 06:34:38;;;;;;;10.27;8.53;;;;;;;;;;5102928;27;20232;-76
2023/05/12 06:37:03;;;;;;;11.40;9.40;;;;;;;;;;5107263;28;20179;-77
2023/05/12 06:39:28;;;;;;;10.80;9.20;;;;;;;;;;5106580;28;20172;-76
2023/05/12 06:41:53;;;;;;;10.03;8.50;;;;;;;;;;5106074;28;20401;-77
2023/05/12 06:44:19;;;;;;;11.13;8.03;;;;;;;;;;5113018;28;20187;-76
2023/05/12 06:46:44;;;;;;;8.77;7.87;;;;;;;;;;5099051;28;20236;-76
2023/05/12 06:49:09;;;;;;;11.70;8.03;;;;;;;;;;5091916;28;20187;-76
2023/05/12 06:51:35;;;;;;;7.87;6.87;;;;;;;;;;5091676;28;20256;-76
2023/05/12 06:54:01;;;;;;;15.10;7.67;;;;;;;;;;5093420;28;20214;-77
2023/05/12 06:56:28;;;;;;;8.77;7.87;;;;;;;;;;5095533;28;20203;-77
2023/05/12 06:58:55;;;;;;;8.67;7.70;;;;;;;;;;5088172;28;20183;-76
2023/05/12 07:01:20;;;;;;;9.20;8.23;;;;;;;;;;5090385;28;20194;-76
2023/05/12 07:03:46;;;;;;;9.77;7.97;;;;;;;;;;5089065;28;20204;-76
2023/05/12 07:06:11;;;;;;;9.77;7.37;;;;;;;;;;5093389;28;20211;-76
2023/05/12 07:08:36;;;;;;;7.97;7.13;;;;;;;;;;5086543;28;20184;-77
2023/05/12 07:11:01;;;;;;;8.30;6.73;;;;;;;;;;5091666;28;20212;-77
2023/05/12 07:13:27;;;;;;;7.60;6.83;;;;;;;;;;5091780;28;20187;-77
2023/05/12 07:15:52;;;;;;;7.40;6.70;;;;;;;;;;5089402;28;20208;-77
2023/05/12 07:18:17;;;;;;;9.43;7.20;;;;;;;;;;5094000;28;20241;-77
2023/05/12 07:20:43;;;;;;;31.07;15.97;;;;;;;;;;5091892;28;20207;-77
2023/05/12 07:23:08;;;;;;;7.77;6.97;;;;;;;;;;5092504;28;20181;-77
2023/05/12 07:25:33;;;;;;;9.07;7.20;;;;;;;;;;5092909;28;20194;-77
2023/05/12 07:27:59;;;;;;;8.20;6.57;;;;;;;;;;5092734;28;20198;-77
2023/05/12 07:30:24;;;;;;;6.07;5.30;;;;;;;;;;5093391;28;20183;-77
2023/05/12 07:32:49;;;;;;;7.80;5.83;;;;;;;;;;5092810;28;20179;-77
2023/05/12 07:35:14;;;;;;;8.27;7.47;;;;;;;;;;5088826;28;20234;-77
2023/05/12 07:37:40;;;;;;;6.87;6.17;;;;;;;;;;5084852;28;20181;-77
2023/05/12 07:40:06;;;;;;;7.20;6.50;;;;;;;;;;5087318;28;20176;-77
2023/05/12 07:42:31;;;;;;;6.80;6.10;;;;;;;;;;5090258;28;20187;-77
2023/05/12 07:44:56;;;;;;;7.23;5.47;;;;;;;;;;5092804;28;20176;-77
2023/05/12 07:47:21;;;;;;;7.30;5.40;;;;;;;;;;5088947;28;20242;-77
2023/05/12 07:49:46;;;;;;;6.10;5.50;;;;;;;;;;5091240;28;20180;-77
2023/05/12 07:52:12;;;;;;;5.97;5.30;;;;;;;;;;5083664;28;20310;-77
2023/05/12 07:54:37;;;;;;;8.33;6.10;;;;;;;;;;5089314;28;20223;-76
2023/05/12 07:57:03;;;;;;;5.37;4.37;;;;;;;;;;5084077;28;20191;-76
2023/05/12 07:59:28;;;;;;;5.30;4.80;;;;;;;;;;5087475;28;20226;-77
2023/05/12 08:01:53;;;;;;;4.90;4.50;;;;;;;;;;5089107;28;20268;-77
2023/05/12 08:04:18;;;;;;;5.10;4.60;;;;;;;;;;5088740;28;20180;-78
2023/05/12 08:06:44;;;;;;;4.20;3.80;;;;;;;;;;5089285;28;20177;-77
2023/05/12 08:09:09;;;;;;;7.67;6.77;;;;;;;;;;5093554;28;20185;-77
2023/05/12 08:11:34;;;;;;;4.80;4.40;;;;;;;;;;5086468;28;20176;-77
2023/05/12 08:13:59;;;;;;;5.20;4.63;;;;;;;;;;5089572;28;20219;-77
2023/05/12 08:16:24;;;;;;;5.87;4.30;;;;;;;;;;5087110;28;20186;-77
2023/05/12 08:18:50;;;;;;;4.67;4.23;;;;;;;;;;5089560;28;20176;-77
2023/05/12 08:21:15;;;;;;;5.43;4.93;;;;;;;;;;5084564;28;20193;-77
2023/05/12 08:23:40;;;;;;;6.97;5.07;;;;;;;;;;5090766;28;20251;-77
2023/05/12 08:26:05;;;;;;;6.77;4.70;;;;;;;;;;5088070;28;20216;-77
2023/05/12 08:28:31;;;;;;;4.97;4.47;;;;;;;;;;5089599;28;20188;-77
2023/05/12 08:30:56;;;;;;;4.87;4.30;;;;;;;;;;5090423;28;20196;-77
2023/05/12 08:33:22;;;;;;;5.27;4.43;;;;;;;;;;5088270;28;20181;-77
2023/05/12 08:35:47;;;;;;;4.10;3.70;;;;;;;;;;5086214;28;20221;-77
2023/05/12 08:38:12;;;;;;;3.80;3.40;;;;;;;;;;5089505;28;20182;-77
2023/05/12 08:40:42;;;;;;;4.07;3.70;;;;;;;;;;5088295;28;20200;-77
2023/05/12 08:43:24;;;;;;;4.60;3.90;;;;;;;;;;5075944;28;20173;-77
2023/05/12 08:45:50;;;;;;;3.73;3.30;;;;;;;;;;5088692;28;20205;-77
2023/05/12 08:48:16;;;;;;;4.37;3.93;;;;;;;;;;5089263;28;20186;-77
2023/05/12 08:50:42;;;;;;;5.10;3.70;;;;;;;;;;5088929;28;20240;-77
2023/05/12 08:53:10;;;;;;;5.13;4.63;;;;;;;;;;5087337;28;20264;-77
2023/05/12 08:55:35;;;;;;;9.43;8.63;;;;;;;;;;5089622;28;20200;-77
2023/05/12 08:58:01;;;;;;;4.97;3.63;;;;;;;;;;5089254;28;20198;-77
2023/05/12 09:00:27;;;;;;;4.23;3.83;;;;;;;;;;5088970;28;20208;-77
2023/05/12 09:02:53;;;;;;;4.50;3.60;;;;;;;;;;5086134;28;20239;-76
2023/05/12 09:05:18;;;;;;;4.10;3.70;;;;;;;;;;5081934;28;20322;-77
2023/05/12 09:07:48;;;;;;;4.73;3.60;;;;;;;;;;5089787;28;20176;-77
2023/05/12 09:10:15;;;;;;;3.97;3.57;;;;;;;;;;5085836;28;20180;-78
2023/05/12 09:12:41;;;;;;;3.53;3.23;;;;;;;;;;5085199;28;20188;-77
2023/05/12 09:15:07;;;;;;;3.87;3.57;;;;;;;;;;5089463;28;20233;-77
2023/05/12 09:17:33;;;;;;;3.17;2.87;;;;;;;;;;5083616;28;20254;-77
2023/05/12 09:19:58;;;;;;;3.00;2.80;;;;;;;;;;5087168;28;20192;-77
2023/05/12 09:22:28;;;;;;;5.17;3.90;;;;;;;;;;5085805;28;20208;-77
2023/05/12 09:24:54;;;;;;;2.90;2.70;;;;;;;;;;5088974;28;20211;-77
2023/05/12 09:27:23;;;;;;;3.40;3.10;;;;;;;;;;5086588;28;20178;-77
2023/05/12 09:29:48;;;;;;;3.53;2.60;;;;;;;;;;5087249;28;20185;-77
2023/05/12 09:32:13;;;;;;;2.60;2.40;;;;;;;;;;5090472;28;20207;-77
2023/05/12 09:34:39;;;;;;;2.60;2.40;;;;;;;;;;5087678;28;20234;-77
2023/05/12 09:37:05;;;;;;;2.40;2.20;;;;;;;;;;5086408;28;20172;-77
2023/05/12 09:39:31;;;;;;;3.93;2.43;;;;;;;;;;5087465;28;20254;-77
2023/05/12 09:41:56;;;;;;;2.93;2.37;;;;;;;;;;5088851;28;20184;-77
2023/05/12 09:44:22;;;;;;;2.20;1.93;;;;;;;;;;5087194;28;20193;-77
2023/05/12 09:46:47;;;;;;;3.33;2.23;;;;;;;;;;5087689;28;20185;-77
2023/05/12 09:49:19;;;;;;;2.17;1.97;;;;;;;;;;5087696;28;20223;-77
2023/05/12 09:51:45;;;;;;;2.10;1.90;;;;;;;;;;5086816;28;20183;-77
2023/05/12 09:54:10;;;;;;;2.13;1.80;;;;;;;;;;5082100;28;20193;-77
2023/05/12 09:56:36;;;;;;;2.50;2.00;;;;;;;;;;5087281;28;20178;-77
2023/05/12 09:59:02;;;;;;;1.63;1.53;;;;;;;;;;5083274;28;20179;-77
2023/05/12 10:01:27;;;;;;;3.97;2.10;;;;;;;;;;5094138;28;20174;-77
2023/05/12 10:03:54;;;;;;;1.90;1.80;;;;;;;;;;5089584;28;20194;-77
2023/05/12 10:06:23;;;;;;;1.70;1.60;;;;;;;;;;5083343;28;20186;-78
2023/05/12 10:09:07;;;;;;;1.80;1.70;;;;;;;;;;5089111;28;20183;-77
2023/05/12 10:11:33;;;;;;;1.93;1.83;;;;;;;;;;5087802;28;20171;-76
2023/05/12 10:13:59;;;;;;;2.20;2.00;;;;;;;;;;5088764;28;20180;-77
2023/05/12 10:16:26;;;;;;;1.60;1.50;;;;;;;;;;5089603;28;20201;-76
2023/05/12 10:18:53;;;;;;;3.33;1.80;;;;;;;;;;5080182;28;20179;-77
2023/05/12 10:21:18;;;;;;;1.83;1.73;;;;;;;;;;5087116;28;20185;-76
2023/05/12 10:23:44;;;;;;;1.97;1.60;;;;;;;;;;5095519;28;20166;-77
2023/05/12 10:26:10;;;;;;;1.63;1.53;;;;;;;;;;5090646;28;20269;-77
2023/05/12 10:28:35;;;;;;;2.63;1.80;;;;;;;;;;5085620;28;20313;-77
2023/05/12 10:31:02;;;;;;;1.70;1.60;;;;;;;;;;5097824;28;20176;-76
2023/05/12 10:33:27;;;;;;;1.93;1.83;;;;;;;;;;5092014;28;20175;-77
2023/05/12 10:35:52;;;;;;;1.70;1.60;;;;;;;;;;5093727;28;20242;-77
2023/05/12 10:38:20;;;;;;;1.80;1.70;;;;;;;;;;5091156;28;20183;-77
2023/05/12 10:40:52;;;;;;;1.93;1.83;;;;;;;;;;5088828;28;20211;-77
2023/05/12 10:43:22;;;;;;;1.80;1.70;;;;;;;;;;5089993;28;20183;-77
2023/05/12 10:46:04;;;;;;;12.73;7.80;;;;;;;;;;5092472;28;20278;-76
2023/05/12 10:48:29;;;;;;;2.50;2.10;;;;;;;;;;5094685;28;20212;-77
2023/05/12 10:50:55;;;;;;;3.00;1.87;;;;;;;;;;5092158;28;20179;-77
2023/05/12 10:53:26;;;;;;;2.20;2.00;;;;;;;;;;5090889;28;20191;-77
2023/05/12 10:55:54;;;;;;;3.30;2.10;;;;;;;;;;5091627;28;20206;-77
2023/05/12 10:58:19;;;;;;;3.97;1.90;;;;;;;;;;5090553;28;20184;-76
2023/05/12 11:00:45;;;;;;;2.57;1.83;;;;;;;;;;5089445;28;20233;-77
2023/05/12 11:03:12;;;;;;;2.20;1.90;;;;;;;;;;5091744;28;20199;-77
2023/05/12 11:05:37;;;;;;;2.27;2.03;;;;;;;;;;5094280;28;20178;-77
2023/05/12 11:08:03;;;;;;;4.37;2.63;;;;;;;;;;5095698;28;20170;-77
2023/05/12 11:10:28;;;;;;;3.17;2.33;;;;;;;;;;5090626;28;20192;-76
2023/05/12 11:12:54;;;;;;;4.07;2.73;;;;;;;;;;5087782;28;20182;-77
2023/05/12 11:15:19;;;;;;;2.30;2.10;;;;;;;;;;5089070;28;20194;-77
2023/05/12 11:17:44;;;;;;;3.57;2.87;;;;;;;;;;5091683;28;20210;-77
2023/05/12 11:20:20;;;;;;;2.70;2.40;;;;;;;;;;5091321;28;20188;-77
2023/05/12 11:22:45;;;;;;;2.90;2.60;;;;;;;;;;5090719;28;20178;-77
2023/05/12 11:25:11;;;;;;;3.47;2.87;;;;;;;;;;5088529;28;20187;-77
2023/05/12 11:27:41;;;;;;;3.20;2.90;;;;;;;;;;5091110;28;20186;-77
2023/05/12 11:30:07;;;;;;;3.33;3.03;;;;;;;;;;5088188;28;20180;-76
2023/05/12 11:32:32;;;;;;;3.00;2.80;;;;;;;;;;5091682;28;20176;-77
2023/05/12 11:35:13;;;;;;;3.13;2.80;;;;;;;;;;5079843;28;20231;-77
2023/05/12 11:37:39;;;;;;;3.80;3.47;;;;;;;;;;5090069;28;20193;-77
2023/05/12 11:40:21;;;;;;;5.07;3.23;;;;;;;;;;5091256;28;20177;-77
2023/05/12 11:42:51;;;;;;;2.73;2.53;;;;;;;;;;5091603;28;20175;-77
2023/05/12 11:45:27;;;;;;;2.63;2.43;;;;;;;;;;5087624;28;20190;-76
2023/05/12 11:47:52;;;;;;;3.27;3.07;;;;;;;;;;5089422;28;20190;-77
2023/05/12 11:50:24;;;;;;;3.07;2.80;;;;;;;;;;5092561;28;20188;-77
2023/05/12 11:52:50;;;;;;;3.27;3.03;;;;;;;;;;5087316;28;20206;-77
2023/05/12 11:55:19;;;;;;;2.90;2.70;;;;;;;;;;5089618;28;20239;-77
2023/05/12 11:57:53;;;;;;;2.53;2.33;;;;;;;;;;5086677;28;20194;-77
2023/05/12 12:00:25;;;;;;;5.30;3.97;;;;;;;;;;5088992;28;20190;-77
2023/05/12 12:02:50;;;;;;;3.10;2.53;;;;;;;;;;5085660;28;20199;-78
2023/05/12 12:05:16;;;;;;;2.50;2.30;;;;;;;;;;5090822;28;20255;-77
2023/05/12 12:07:42;;;;;;;2.80;2.60;;;;;;;;;;5093889;28;20193;-77
2023/05/12 12:10:14;;;;;;;3.50;2.77;;;;;;;;;;5087604;28;20182;-78
2023/05/12 12:12:40;;;;;;;2.73;2.53;;;;;;;;;;5085780;28;20222;-77
2023/05/12 12:15:06;;;;;;;7.37;2.70;;;;;;;;;;5088276;28;20219;-78
2023/05/12 12:17:31;;;;;;;2.30;2.10;;;;;;;;;;5089084;28;20180;-77
2023/05/12 12:19:56;;;;;;;2.20;2.00;;;;;;;;;;5090136;28;20183;-78
2023/05/12 12:22:22;;;;;;;2.20;2.10;;;;;;;;;;5091879;28;20173;-77
2023/05/12 12:24:47;;;;;;;3.57;2.40;;;;;;;;;;5088913;28;20185;-79
2023/05/12 12:27:12;;;;;;;4.73;3.17;;;;;;;;;;5089664;28;20199;-77
2023/05/12 12:29:38;;;;;;;3.30;3.00;;;;;;;;;;5088689;28;20173;-77
2023/05/12 12:32:03;;;;;;;2.53;2.33;;;;;;;;;;5088280;28;20241;-78
2023/05/12 12:34:28;;;;;;;3.03;2.83;;;;;;;;;;5088256;28;20263;-77
2023/05/12 12:36:53;;;;;;;3.53;2.90;;;;;;;;;;5091316;28;20179;-77
2023/05/12 12:39:20;;;;;;;3.13;2.80;;;;;;;;;;5092005;28;20172;-77
2023/05/12 12:41:46;;;;;;;3.43;3.13;;;;;;;;;;5092028;28;20174;-77
2023/05/12 12:44:12;;;;;;;3.40;3.10;;;;;;;;;;5084392;28;20190;-78
2023/05/12 12:46:37;;;;;;;3.00;2.80;;;;;;;;;;5090691;28;20176;-77
2023/05/12 12:49:02;;;;;;;3.50;3.20;;;;;;;;;;5092683;28;20199;-77
2023/05/12 12:51:29;;;;;;;3.43;3.13;;;;;;;;;;5090148;28;20184;-78
2023/05/12 12:53:55;;;;;;;3.60;3.30;;;;;;;;;;5089571;28;20180;-78
2023/05/12 12:56:21;;;;;;;4.00;3.70;;;;;;;;;;5090781;28;20214;-78
2023/05/12 12:58:46;;;;;;;3.63;3.33;;;;;;;;;;5089131;28;20188;-77
2023/05/12 13:01:11;;;;;;;4.63;4.07;;;;;;;;;;5088010;28;20184;-78
2023/05/12 13:03:37;;;;;;;4.53;4.07;;;;;;;;;;5084593;28;20236;-78
2023/05/12 13:06:02;;;;;;;4.77;4.37;;;;;;;;;;5091160;28;20186;-77
2023/05/12 13:08:27;;;;;;;4.37;3.97;;;;;;;;;;5087935;28;20210;-77
2023/05/12 13:10:53;;;;;;;3.77;3.47;;;;;;;;;;5090410;28;20272;-77
2023/05/12 13:13:19;;;;;;;3.57;3.27;;;;;;;;;;5089018;28;20182;-77
2023/05/12 13:15:44;;;;;;;5.73;3.77;;;;;;;;;;5087850;28;20199;-77
2023/05/12 13:18:09;;;;;;;3.47;3.17;;;;;;;;;;5085726;28;20173;-77
2023/05/12 13:20:35;;;;;;;3.50;3.20;;;;;;;;;;5089946;28;20173;-78
2023/05/12 13:23:00;;;;;;;3.70;3.40;;;;;;;;;;5088455;28;20184;-77
2023/05/12 13:25:25;;;;;;;3.17;2.97;;;;;;;;;;5087410;28;20249;-77
2023/05/12 13:27:51;;;;;;;4.83;4.43;;;;;;;;;;5090764;28;20202;-77
2023/05/12 13:30:16;;;;;;;5.53;5.03;;;;;;;;;;5085051;28;20184;-77
2023/05/12 13:32:41;;;;;;;3.47;3.20;;;;;;;;;;5085132;28;20205;-77
2023/05/12 13:35:07;;;;;;;4.33;3.37;;;;;;;;;;5084528;28;20318;-77
2023/05/12 13:37:33;;;;;;;4.67;3.80;;;;;;;;;;5085721;28;20186;-78
2023/05/12 13:39:58;;;;;;;3.13;2.83;;;;;;;;;;5087464;28;20188;-78
2023/05/12 13:42:23;;;;;;;2.40;2.20;;;;;;;;;;5085930;28;20190;-78
2023/05/12 13:44:48;;;;;;;2.87;2.57;;;;;;;;;;5087761;28;20268;-77
2023/05/12 13:47:14;;;;;;;3.50;3.20;;;;;;;;;;5079008;28;20195;-77
2023/05/12 13:49:40;;;;;;;3.57;2.80;;;;;;;;;;5089342;28;20177;-77
2023/05/12 13:52:05;;;;;;;2.90;2.70;;;;;;;;;;5085434;28;20189;-77
2023/05/12 13:54:31;;;;;;;2.77;2.57;;;;;;;;;;5088692;28;20205;-77
2023/05/12 13:56:56;;;;;;;2.37;2.17;;;;;;;;;;5089494;28;20216;-75
2023/05/12 13:59:21;;;;;;;3.37;2.60;;;;;;;;;;5090606;28;20248;-75
2023/05/12 14:01:46;;;;;;;3.10;2.90;;;;;;;;;;5093800;28;20173;-75
2023/05/12 14:04:12;;;;;;;2.00;1.90;;;;;;;;;;5090366;28;20192;-75
2023/05/12 14:06:37;;;;;;;2.43;1.80;;;;;;;;;;5092933;28;20267;-76
2023/05/12 14:09:05;;;;;;;2.17;1.90;;;;;;;;;;5097318;28;20176;-76
2023/05/12 14:11:31;;;;;;;1.90;1.80;;;;;;;;;;5088050;28;20240;-76
2023/05/12 14:13:59;;;;;;;1.60;1.50;;;;;;;;;;5088136;28;20263;-76
2023/05/12 14:16:24;;;;;;;3.73;2.60;;;;;;;;;;5091867;28;20251;-75
2023/05/12 14:18:49;;;;;;;15.40;7.07;;;;;;;;;;5094624;28;20192;-75
2023/05/12 14:21:14;;;;;;;18.07;8.17;;;;;;;;;;5087965;28;20172;-76
2023/05/12 14:23:40;;;;;;;7.13;5.10;;;;;;;;;;5090992;28;20195;-76
2023/05/12 14:26:05;;;;;;;5.60;4.20;;;;;;;;;;5084143;28;20176;-75
2023/05/12 14:28:30;;;;;;;3.70;3.40;;;;;;;;;;5081185;28;20187;-76
2023/05/12 14:30:55;;;;;;;3.10;2.80;;;;;;;;;;5088771;28;20220;-76